KCEZ/CEZ METAR and TAF weather

Enter ICAO airport designator
Station Type Date Time Source
KCEZ METAR 2019/04/25 15:53 UTC NOAA

KCEZ 251553Z AUTO 14004KT 10SM CLR 16/01 A3016 RMK AO2 SLP160 T01610011


Station Type Date Time Source
KCEZ Decoded METAR 2019/04/25 15:53 UTC NOAA

CORTEZ MONTEZUMA COUNTY AIRPORT , CO, United States (KCEZ) 37-18N 108-38W 1797M
Apr 25, 2019 - 11:53 AM EDT / 2019.04.25 1553 UTC
Wind: from the SE (140 degrees) at 5 MPH (4 KT):0
Visibility: 10 mile(s):0
Sky conditions: clear
Temperature: 61.0 F (16.1 C)
Dew Point: 34.0 F (1.1 C)
Relative Humidity: 36%
Pressure (altimeter): 30.16 in. Hg (1021 hPa)
ob: KCEZ 251553Z AUTO 14004KT 10SM CLR 16/01 A3016 RMK AO2 SLP160 T01610011
cycle: 16

Station Type Date Time Source
KCEZ TAF UTC NOAA

Error!

Example: see airport list